Time;durP1;ratioP1;P1;durP2;ratioP2;P2;SDS_P1;SDS_P2;PMS_P1;PMS_P2;Temp;Humidity;BMP_temperature;BMP_pressure;BME280_temperature;BME280_humidity;BME280_pressure;Samples;Min_cycle;Max_cycle;Signal;HPM_P1;HPM_P2
2021/04/25 00:01:18;;;;;;;4.60;2.80;;;;;;;7.16;49.28;102475.72;6154684;28;20238;-50
2021/04/25 00:04:39;;;;;;;6.20;1.87;;;;;;;6.99;49.73;102477.75;6134756;28;20230;-51
2021/04/25 00:08:00;;;;;;;10.37;2.60;;;;;;;6.98;49.71;102479.47;6126678;28;20231;-51
2021/04/25 00:11:21;;;;;;;10.03;2.93;;;;;;;7.18;49.32;102474.94;6150559;28;20525;-52
2021/04/25 00:14:41;;;;;;;5.87;2.43;;;;;;;7.19;49.09;102471.50;6128681;28;20243;-54
2021/04/25 00:18:01;;;;;;;8.67;2.70;;;;;;;6.99;49.21;102465.69;6137348;28;20238;-52
2021/04/25 00:21:22;;;;;;;3.80;1.73;;;;;;;6.74;49.85;102460.53;6156992;28;20257;-50
2021/04/25 00:24:43;;;;;;;5.30;2.10;;;;;;;6.81;49.73;102460.78;6131237;28;20230;-53
2021/04/25 00:28:04;;;;;;;6.07;2.17;;;;;;;6.75;49.85;102455.41;6158696;28;20262;-49
2021/04/25 00:31:25;;;;;;;5.00;2.37;;;;;;;6.77;50.15;102451.16;6131561;28;20317;-51
2021/04/25 00:34:47;;;;;;;7.60;3.47;;;;;;;6.78;49.92;102462.41;6154132;28;20325;-54
2021/04/25 00:38:07;;;;;;;3.83;2.03;;;;;;;6.81;49.66;102450.44;6154956;28;20230;-54
2021/04/25 00:41:28;;;;;;;4.70;2.23;;;;;;;6.77;49.95;102455.47;6159308;28;20317;-49
2021/04/25 00:44:49;;;;;;;9.30;2.70;;;;;;;6.79;49.69;102453.81;6160743;28;20248;-51
2021/04/25 00:48:09;;;;;;;3.20;2.23;;;;;;;6.71;49.53;102450.97;6133457;28;20325;-50
2021/04/25 00:51:30;;;;;;;4.47;2.40;;;;;;;6.47;49.76;102446.72;6166483;28;20580;-52
2021/04/25 00:54:51;;;;;;;5.33;1.70;;;;;;;6.52;50.05;102444.28;6150352;28;20234;-56
2021/04/25 00:58:13;;;;;;;2.23;1.70;;;;;;;6.49;49.87;102452.84;6146847;28;20501;-54
2021/04/25 01:01:33;;;;;;;4.37;1.57;;;;;;;6.42;49.68;102447.41;6158227;28;20234;-52
2021/04/25 01:04:53;;;;;;;3.10;1.87;;;;;;;6.78;49.20;102444.28;6154399;28;20233;-53
2021/04/25 01:08:14;;;;;;;7.30;4.40;;;;;;;6.67;49.35;102443.94;6157648;28;20273;-51
2021/04/25 01:11:34;;;;;;;4.03;2.43;;;;;;;6.42;49.63;102439.66;6158438;28;20317;-49
2021/04/25 01:14:56;;;;;;;4.43;1.97;;;;;;;6.49;49.66;102442.50;6159270;28;20257;-55
2021/04/25 01:18:16;;;;;;;10.03;2.37;;;;;;;6.49;49.54;102445.09;6151541;28;20258;-53
2021/04/25 01:21:38;;;;;;;5.43;1.93;;;;;;;6.56;48.92;102451.34;6154621;28;20230;-52
2021/04/25 01:24:58;;;;;;;4.10;2.10;;;;;;;6.37;50.05;102444.66;6152649;28;20241;-51
2021/04/25 01:28:19;;;;;;;5.93;2.13;;;;;;;6.55;49.34;102448.69;6148705;28;20330;-52
2021/04/25 01:31:39;;;;;;;5.77;1.87;;;;;;;6.78;48.72;102434.78;6152293;28;20242;-49
2021/04/25 01:35:00;;;;;;;6.30;1.77;;;;;;;6.58;49.72;102441.91;6158885;28;20648;-54
2021/04/25 01:38:21;;;;;;;5.57;2.37;;;;;;;6.43;49.83;102444.84;6157898;28;20231;-51
2021/04/25 01:41:42;;;;;;;7.80;3.10;;;;;;;6.50;49.46;102444.25;6151007;28;20231;-53
2021/04/25 01:45:03;;;;;;;3.67;2.00;;;;;;;6.42;49.25;102443.09;6146956;28;20688;-48
2021/04/25 01:48:23;;;;;;;7.07;2.00;;;;;;;6.58;49.29;102441.03;6160318;28;20539;-54
2021/04/25 01:51:44;;;;;;;7.17;2.97;;;;;;;6.53;49.72;102443.44;6163684;28;20234;-54
2021/04/25 01:55:07;;;;;;;4.30;2.43;;;;;;;6.47;49.36;102436.34;6148619;28;20325;-56
2021/04/25 01:58:28;;;;;;;7.67;2.93;;;;;;;6.43;49.76;102446.56;6147193;28;20265;-53
2021/04/25 02:01:48;;;;;;;6.23;2.30;;;;;;;6.63;49.22;102442.06;6152346;28;20700;-54
2021/04/25 02:05:10;;;;;;;6.80;2.80;;;;;;;6.24;50.90;102442.47;6151124;28;20242;-54
2021/04/25 02:08:31;;;;;;;7.93;3.00;;;;;;;6.11;51.21;102449.81;6153476;28;20317;-50
2021/04/25 02:11:52;;;;;;;5.23;2.40;;;;;;;6.22;50.68;102442.44;6159341;28;20230;-53
2021/04/25 02:15:14;;;;;;;7.50;2.97;;;;;;;6.37;50.81;102438.59;6155029;28;20234;-55
2021/04/25 02:18:34;;;;;;;5.53;2.83;;;;;;;6.30;50.54;102438.41;6130245;28;20617;-52
2021/04/25 02:21:55;;;;;;;4.73;2.37;;;;;;;6.30;50.46;102437.50;6150568;28;20246;-54
2021/04/25 02:25:18;;;;;;;4.70;1.70;;;;;;;6.23;50.61;102433.81;6150175;28;20230;-53
2021/04/25 02:28:39;;;;;;;6.30;2.77;;;;;;;6.16;50.88;102431.84;6155957;28;20526;-51
2021/04/25 02:32:00;;;;;;;4.73;2.00;;;;;;;6.30;50.63;102427.16;6149617;28;20612;-52
2021/04/25 02:35:22;;;;;;;5.90;1.90;;;;;;;6.09;51.03;102433.34;6156673;28;20246;-55
2021/04/25 02:38:42;;;;;;;5.87;2.20;;;;;;;6.19;50.85;102431.97;6152258;28;20563;-52
2021/04/25 02:42:04;;;;;;;3.50;2.30;;;;;;;6.25;50.70;102423.53;6152376;28;20235;-48
2021/04/25 02:45:26;;;;;;;6.63;2.57;;;;;;;6.05;51.31;102421.13;6152485;28;20242;-50
2021/04/25 02:48:47;;;;;;;5.03;1.87;;;;;;;6.02;51.04;102421.03;6158334;28;20601;-51
2021/04/25 02:52:07;;;;;;;6.83;3.17;;;;;;;5.92;52.08;102416.31;6142318;28;20222;-52
2021/04/25 02:55:28;;;;;;;4.97;1.97;;;;;;;5.94;52.00;102417.25;6148414;28;20234;-50
2021/04/25 02:58:48;;;;;;;6.53;2.50;;;;;;;6.18;50.74;102411.22;6161604;28;20234;-49
2021/04/25 03:02:10;;;;;;;4.80;2.23;;;;;;;5.99;51.54;102412.28;6158605;28;20325;-49
2021/04/25 03:05:31;;;;;;;4.30;2.17;;;;;;;5.88;51.85;102405.00;6151615;28;20625;-52
2021/04/25 03:08:51;;;;;;;4.73;2.20;;;;;;;6.18;51.37;102404.31;6151767;28;20535;-54
2021/04/25 03:12:11;;;;;;;7.30;2.90;;;;;;;5.99;51.37;102410.59;6147475;28;20298;-53
2021/04/25 03:15:32;;;;;;;5.47;2.63;;;;;;;5.76;52.41;102411.41;6159608;28;20704;-49
2021/04/25 03:18:53;;;;;;;5.27;2.70;;;;;;;5.80;52.20;102408.13;6158862;28;20242;-51
2021/04/25 03:22:14;;;;;;;6.83;2.73;;;;;;;5.79;52.27;102416.72;6161792;28;20253;-54
2021/04/25 03:25:34;;;;;;;6.10;2.60;;;;;;;5.95;51.62;102412.97;6159705;28;20239;-49
2021/04/25 03:28:54;;;;;;;3.93;2.00;;;;;;;6.03;51.68;102415.03;6158087;28;20313;-53
2021/04/25 03:32:15;;;;;;;4.40;2.77;;;;;;;5.75;52.72;102412.25;6156814;28;20250;-52
2021/04/25 03:35:36;;;;;;;4.90;2.70;;;;;;;5.84;51.70;102410.88;6156030;28;20242;-54
2021/04/25 03:38:57;;;;;;;5.07;2.13;;;;;;;5.93;51.61;102407.72;6157174;28;20628;-51
2021/04/25 03:42:17;;;;;;;4.77;2.30;;;;;;;5.99;51.92;102405.41;6160134;28;20226;-52
2021/04/25 03:45:38;;;;;;;4.47;2.77;;;;;;;5.99;51.73;102409.69;6154858;28;20262;-50
2021/04/25 03:48:59;;;;;;;6.70;2.10;;;;;;;5.83;52.08;102411.69;6161346;28;20656;-54
2021/04/25 03:52:20;;;;;;;5.73;2.40;;;;;;;5.82;51.99;102416.84;6157546;28;20320;-53
2021/04/25 03:55:41;;;;;;;9.67;4.00;;;;;;;5.72;52.39;102416.50;6154985;28;20261;-54
2021/04/25 03:59:01;;;;;;;5.73;2.23;;;;;;;5.77;52.01;102418.34;6152950;28;20238;-53
2021/04/25 04:02:22;;;;;;;6.23;2.10;;;;;;;5.75;52.55;102410.53;6153823;28;20234;-53
2021/04/25 04:05:42;;;;;;;6.50;2.50;;;;;;;5.62;52.62;102422.16;6154492;28;20394;-48
2021/04/25 04:09:04;;;;;;;6.07;2.40;;;;;;;5.63;53.07;102418.72;6159225;28;20250;-49
2021/04/25 04:12:24;;;;;;;7.77;2.67;;;;;;;5.77;52.53;102420.94;6152492;28;20409;-51
2021/04/25 04:15:45;;;;;;;5.63;2.60;;;;;;;5.65;53.11;102416.22;6155280;28;20810;-48
2021/04/25 04:19:06;;;;;;;5.53;2.90;;;;;;;5.82;52.41;102422.88;6140356;28;20648;-54
2021/04/25 04:22:26;;;;;;;4.70;2.53;;;;;;;5.72;52.42;102426.81;6158616;28;20234;-51
2021/04/25 04:25:47;;;;;;;7.03;3.00;;;;;;;5.82;52.31;102432.34;6150804;28;20234;-49
2021/04/25 04:29:08;;;;;;;4.10;2.57;;;;;;;5.81;52.47;102426.28;6144296;28;20533;-52
2021/04/25 04:32:28;;;;;;;6.20;3.40;;;;;;;5.92;51.84;102431.84;6156193;28;20321;-50
2021/04/25 04:35:48;;;;;;;5.53;2.43;;;;;;;5.73;52.50;102438.03;6150164;28;20239;-52
2021/04/25 04:39:09;;;;;;;5.40;2.53;;;;;;;5.75;52.80;102435.53;6157205;28;20306;-53
2021/04/25 04:42:30;;;;;;;3.97;2.10;;;;;;;5.87;52.38;102435.94;6152596;28;20234;-50
2021/04/25 04:45:52;;;;;;;6.50;2.00;;;;;;;5.95;51.89;102438.81;6151335;28;20226;-49
2021/04/25 04:49:12;;;;;;;7.67;2.63;;;;;;;5.82;52.64;102437.50;6150372;28;20603;-55
2021/04/25 04:52:33;;;;;;;8.63;2.40;;;;;;;5.83;52.48;102447.88;6157773;28;20357;-50
2021/04/25 04:55:54;;;;;;;9.40;3.20;;;;;;;5.93;52.46;102436.16;6155210;28;20317;-50
2021/04/25 04:59:15;;;;;;;7.63;2.53;;;;;;;6.02;52.25;102436.53;6159587;28;20242;-54
2021/04/25 05:02:36;;;;;;;6.57;2.50;;;;;;;5.93;52.42;102443.94;6159526;28;20648;-50
2021/04/25 05:05:56;;;;;;;6.20;2.33;;;;;;;5.94;52.08;102440.53;6165772;28;20234;-54
2021/04/25 05:09:16;;;;;;;4.83;2.80;;;;;;;5.95;52.22;102444.91;6158790;28;20235;-54
2021/04/25 05:12:37;;;;;;;7.00;3.13;;;;;;;6.05;52.05;102457.34;6161261;28;20515;-52
2021/04/25 05:15:58;;;;;;;4.93;2.30;;;;;;;6.03;52.11;102455.50;6159314;28;20321;-52
2021/04/25 05:19:18;;;;;;;5.93;2.30;;;;;;;6.08;52.16;102462.63;6157640;28;20635;-46
2021/04/25 05:22:38;;;;;;;5.70;2.77;;;;;;;6.29;51.78;102467.66;6165010;28;20261;-52
2021/04/25 05:25:59;;;;;;;5.90;2.70;;;;;;;6.29;51.57;102471.97;6161427;28;20247;-54
2021/04/25 05:29:20;;;;;;;3.80;2.67;;;;;;;6.61;50.66;102464.41;6165873;28;21775;-52
2021/04/25 05:32:41;;;;;;;4.40;2.37;;;;;;;6.55;50.77;102477.16;6163171;28;20332;-52
2021/04/25 05:36:01;;;;;;;5.03;2.40;;;;;;;6.56;51.44;102473.75;6162290;28;20324;-52
2021/04/25 05:39:22;;;;;;;5.13;2.30;;;;;;;6.73;50.52;102475.22;6150360;28;20234;-49
2021/04/25 05:42:42;;;;;;;4.50;2.50;;;;;;;6.75;50.33;102473.53;6163754;28;20234;-53
2021/04/25 05:46:03;;;;;;;6.23;2.60;;;;;;;6.40;51.52;102475.81;6159056;28;20230;-52
2021/04/25 05:49:24;;;;;;;5.73;2.40;;;;;;;6.62;50.71;102471.38;6144729;28;20632;-50
2021/04/25 05:52:45;;;;;;;3.83;2.70;;;;;;;6.91;50.28;102474.91;6147410;28;20313;-52
2021/04/25 05:56:06;;;;;;;4.33;2.47;;;;;;;6.83;49.84;102481.56;6147210;28;20246;-49
2021/04/25 05:59:26;;;;;;;6.30;2.73;;;;;;;6.95;49.45;102486.28;6147645;28;20249;-52
2021/04/25 06:02:46;;;;;;;5.40;3.37;;;;;;;7.33;48.52;102489.19;6160506;28;20610;-50
2021/04/25 06:06:08;;;;;;;4.97;2.13;;;;;;;7.33;48.23;102484.00;6153483;28;20575;-53
2021/04/25 06:09:28;;;;;;;6.80;2.50;;;;;;;7.18;49.11;102490.47;6159278;28;20238;-51
2021/04/25 06:12:51;;;;;;;5.43;2.50;;;;;;;7.53;48.41;102490.69;6154894;28;20282;-50
2021/04/25 06:16:11;;;;;;;8.53;2.57;;;;;;;7.72;47.34;102493.84;6160047;28;20522;-50
2021/04/25 06:19:32;;;;;;;6.27;2.30;;;;;;;7.85;46.94;102494.22;6155391;28;20234;-53
2021/04/25 06:22:53;;;;;;;3.80;2.60;;;;;;;7.86;46.42;102492.50;6162948;28;20246;-53
2021/04/25 06:26:13;;;;;;;3.17;2.10;;;;;;;7.36;47.38;102497.06;6151876;28;20464;-53
2021/04/25 06:29:34;;;;;;;5.00;2.83;;;;;;;7.82;46.79;102501.03;6150532;28;20238;-50
2021/04/25 06:32:54;;;;;;;6.10;2.63;;;;;;;7.90;46.34;102502.13;6151246;28;20511;-53
2021/04/25 06:36:14;;;;;;;4.20;2.27;;;;;;;7.73;46.62;102505.94;6160958;28;20227;-52
2021/04/25 06:39:36;;;;;;;5.57;2.73;;;;;;;8.17;45.51;102508.97;6162122;28;20325;-51
2021/04/25 06:42:56;;;;;;;4.90;2.33;;;;;;;8.25;44.91;102507.44;6168169;28;20227;-53
2021/04/25 06:46:16;;;;;;;6.80;2.10;;;;;;;8.31;44.25;102507.59;6167957;28;20313;-53
2021/04/25 06:49:37;;;;;;;4.80;2.60;;;;;;;8.50;43.99;102510.75;6167208;28;20258;-50
2021/04/25 06:52:58;;;;;;;4.87;2.17;;;;;;;8.68;43.57;102511.22;6168048;28;20261;-51
2021/04/25 06:56:19;;;;;;;5.77;2.73;;;;;;;8.87;43.38;102513.44;6160940;28;20242;-51
2021/04/25 06:59:40;;;;;;;4.37;2.80;;;;;;;8.96;43.66;102519.72;6163401;28;20238;-51
2021/04/25 07:03:01;;;;;;;3.03;1.97;;;;;;;8.87;43.10;102521.22;6161364;28;20230;-53
2021/04/25 07:06:21;;;;;;;6.57;2.10;;;;;;;9.05;41.29;102522.53;6163942;28;20254;-54
2021/04/25 07:09:42;;;;;;;4.33;1.93;;;;;;;9.13;39.48;102523.63;6166211;28;20644;-52
2021/04/25 07:13:03;;;;;;;1.97;1.77;;;;;;;9.20;39.60;102522.91;6166679;28;20270;-51
2021/04/25 07:16:24;;;;;;;3.03;1.60;;;;;;;9.36;39.40;102525.84;6165390;28;20519;-55
2021/04/25 07:19:44;;;;;;;3.87;1.70;;;;;;;9.68;38.23;102526.59;6160390;28;20242;-49
2021/04/25 07:23:05;;;;;;;3.23;1.90;;;;;;;9.84;37.84;102525.19;6163336;28;20234;-52
2021/04/25 07:26:25;;;;;;;2.77;1.40;;;;;;;10.13;36.85;102537.94;6164372;28;20290;-54
2021/04/25 07:29:46;;;;;;;2.87;1.50;;;;;;;10.19;36.48;102536.31;6154720;28;20222;-48
2021/04/25 07:33:07;;;;;;;2.30;1.40;;;;;;;9.99;36.48;102541.13;6167185;28;20604;-50
2021/04/25 07:36:28;;;;;;;2.40;1.10;;;;;;;10.18;35.76;102539.78;6167263;28;20238;-49
2021/04/25 07:39:48;;;;;;;3.27;2.00;;;;;;;10.72;38.72;102542.56;6164378;28;20360;-49
2021/04/25 07:43:09;;;;;;;6.07;5.13;;;;;;;11.62;40.61;102538.78;6164438;28;20226;-50
2021/04/25 07:46:30;;;;;;;81.60;73.03;;;;;;;11.94;40.25;102543.59;6167617;28;20242;-53
2021/04/25 07:49:51;;;;;;;1257.13;999.90;;;;;;;13.18;41.75;102544.00;6152645;28;20238;-52
2021/04/25 07:53:11;;;;;;;279.88;257.27;;;;;;;12.94;38.34;102543.78;6164276;28;20750;-55
2021/04/25 07:56:31;;;;;;;1230.40;992.53;;;;;;;12.72;33.78;102553.19;6161310;28;20238;-47
2021/04/25 07:59:52;;;;;;;969.93;866.10;;;;;;;12.91;34.59;102554.22;6163663;28;20326;-50
2021/04/25 08:03:13;;;;;;;328.47;283.67;;;;;;;12.06;33.33;102541.97;6163762;28;20231;-51
2021/04/25 08:06:33;;;;;;;161.57;144.67;;;;;;;12.21;31.61;102534.34;6164351;28;20238;-52
2021/04/25 08:09:54;;;;;;;5.30;4.10;;;;;;;11.62;32.13;102549.22;6161486;28;20255;-53
2021/04/25 08:13:14;;;;;;;1.30;1.17;;;;;;;11.82;32.75;102540.78;6167321;28;20537;-50
2021/04/25 08:16:34;;;;;;;3.67;2.20;;;;;;;11.49;32.84;102547.28;6162775;28;20325;-50
2021/04/25 08:19:56;;;;;;;1.83;1.03;;;;;;;11.27;31.63;102553.06;6163758;28;20239;-53
2021/04/25 08:23:16;;;;;;;4.60;1.43;;;;;;;11.31;31.81;102547.88;6166741;28;20238;-49
2021/04/25 08:26:37;;;;;;;0.97;0.97;;;;;;;11.03;32.97;102546.56;6143676;28;20235;-50
2021/04/25 08:29:57;;;;;;;2.47;1.23;;;;;;;12.16;32.13;102538.66;6157864;28;20314;-51
2021/04/25 08:33:17;;;;;;;2.17;1.10;;;;;;;11.75;30.12;102549.41;6147491;28;20519;-53
2021/04/25 08:36:39;;;;;;;1.10;0.80;;;;;;;11.35;30.06;102547.09;6161272;28;20711;-54
2021/04/25 08:39:59;;;;;;;3.70;1.20;;;;;;;11.59;29.67;102549.19;6162894;28;20254;-53
2021/04/25 08:43:20;;;;;;;1.73;0.80;;;;;;;11.34;30.21;102555.78;6161071;28;20320;-51
2021/04/25 08:46:42;;;;;;;1.23;1.13;;;;;;;11.45;30.69;102555.06;6158490;28;20782;-54
2021/04/25 08:50:04;;;;;;;1.57;1.43;;;;;;;11.72;31.07;102554.56;6157099;28;20222;-54
2021/04/25 08:53:25;;;;;;;1.90;0.93;;;;;;;12.58;29.91;102555.63;6162463;28;20314;-55
2021/04/25 08:56:46;;;;;;;2.30;1.27;;;;;;;12.34;29.10;102553.66;6153441;28;20230;-50
2021/04/25 09:00:08;;;;;;;0.97;0.90;;;;;;;11.98;28.80;102554.94;6167929;28;20230;-50
2021/04/25 09:03:29;;;;;;;1.40;1.30;;;;;;;11.75;29.04;102546.81;6156359;28;20621;-54
2021/04/25 09:07:00;;;;;;;1.57;1.37;;;;;;;12.63;28.64;102548.72;6166649;28;20439;-53
2021/04/25 09:10:26;;;;;;;1.97;0.93;;;;;;;12.70;28.72;102565.38;6155753;28;20230;-53
2021/04/25 09:13:46;;;;;;;6.53;5.40;;;;;;;13.56;33.06;102551.25;6155281;28;20310;-54
2021/04/25 09:17:07;;;;;;;1.30;1.20;;;;;;;13.25;27.63;102557.97;6157948;28;20238;-50
2021/04/25 09:20:33;;;;;;;1.30;0.90;;;;;;;12.94;28.04;102562.09;6162472;28;20840;-53
2021/04/25 09:23:53;;;;;;;1.07;0.70;;;;;;;12.41;27.79;102564.19;6154483;28;20230;-50
2021/04/25 09:27:26;;;;;;;2.30;1.80;;;;;;;12.27;28.93;102560.56;6163013;28;20242;-54
2021/04/25 09:30:58;;;;;;;3.07;0.97;;;;;;;12.00;28.92;102556.72;6157337;28;20234;-50
2021/04/25 09:34:27;;;;;;;1.93;1.80;;;;;;;12.10;29.18;102564.69;6153480;28;20258;-54
2021/04/25 09:37:49;;;;;;;1.13;1.03;;;;;;;12.43;28.46;102572.03;6150008;28;20312;-48
2021/04/25 09:41:23;;;;;;;3.13;2.73;;;;;;;12.97;32.21;102562.13;6161636;28;20593;-54
2021/04/25 09:44:46;;;;;;;1.00;1.00;;;;;;;13.33;27.59;102558.06;6172879;28;20238;-53
2021/04/25 09:48:24;;;;;;;2.80;2.60;;;;;;;13.89;32.14;102552.31;6159841;28;20269;-51
2021/04/25 09:51:45;;;;;;;5.93;1.90;;;;;;;13.71;29.37;102549.59;6156830;28;20262;-53
2021/04/25 09:55:27;;;;;;;2.13;1.90;;;;;;;14.09;28.57;102556.75;6138301;28;20222;-54
2021/04/25 09:59:09;;;;;;;2.70;1.27;;;;;;;13.51;24.39;102555.59;6160408;28;20565;-53
2021/04/25 10:02:30;;;;;;;1.83;1.50;;;;;;;13.52;24.64;102554.72;6152316;28;20262;-54
2021/04/25 10:05:58;;;;;;;1.90;1.20;;;;;;;14.32;24.39;102544.59;6158950;28;20551;-51
2021/04/25 10:09:20;;;;;;;1.03;0.90;;;;;;;14.36;22.86;102542.88;6168256;28;20233;-54
2021/04/25 10:12:41;;;;;;;1.83;1.53;;;;;;;14.84;22.52;102548.22;6163849;28;20234;-49
2021/04/25 10:16:02;;;;;;;2.47;2.27;;;;;;;14.49;22.74;102546.41;6163124;28;20226;-50
2021/04/25 10:19:23;;;;;;;2.93;1.60;;;;;;;14.77;25.54;102556.09;6164477;28;20618;-54
2021/04/25 10:22:45;;;;;;;1.33;0.97;;;;;;;14.29;23.19;102552.47;6162244;28;20226;-53
2021/04/25 10:26:09;;;;;;;1.53;1.20;;;;;;;13.85;26.17;102558.41;6169311;28;20250;-54
2021/04/25 10:29:34;;;;;;;1.30;1.20;;;;;;;14.48;26.42;102557.75;6145901;28;20235;-51
2021/04/25 10:32:58;;;;;;;2.20;1.60;;;;;;;15.50;23.62;102550.81;6158844;28;20231;-55
2021/04/25 10:36:19;;;;;;;2.13;0.90;;;;;;;14.56;23.01;102556.03;6164416;28;20494;-50
2021/04/25 10:39:46;;;;;;;2.10;1.53;;;;;;;14.90;24.31;102553.47;6161953;28;20231;-50
2021/04/25 10:43:08;;;;;;;2.27;1.07;;;;;;;15.61;22.29;102542.94;6158695;28;20246;-53
2021/04/25 10:47:02;;;;;;;2.43;1.43;;;;;;;15.12;21.68;102543.84;6164799;28;20238;-52
2021/04/25 10:50:42;;;;;;;1.87;1.33;;;;;;;16.01;22.87;102548.06;6170112;28;20650;-56
2021/04/25 10:54:04;;;;;;;1.43;0.97;;;;;;;16.36;23.87;102552.25;6169938;28;20600;-53
2021/04/25 10:57:25;;;;;;;1.87;0.83;;;;;;;16.56;21.10;102546.91;6168895;28;20238;-54
2021/04/25 11:00:46;;;;;;;0.97;0.97;;;;;;;16.56;20.90;102547.78;6148064;28;20234;-53
2021/04/25 11:04:07;;;;;;;2.03;0.80;;;;;;;16.66;20.09;102538.94;6144564;28;20238;-52
2021/04/25 11:07:38;;;;;;;1.77;0.90;;;;;;;16.83;20.18;102537.97;6161743;28;20668;-57
2021/04/25 11:11:01;;;;;;;2.20;1.10;;;;;;;16.58;21.29;102540.75;6166951;28;20223;-56
2021/04/25 11:14:38;;;;;;;2.30;0.70;;;;;;;15.18;21.88;102548.22;6153518;28;20227;-51
2021/04/25 11:17:58;;;;;;;2.67;1.47;;;;;;;15.01;21.91;102548.25;6151708;28;20612;-54
2021/04/25 11:21:50;;;;;;;1.13;0.80;;;;;;;15.55;21.15;102542.06;6160599;28;20772;-53
2021/04/25 11:25:28;;;;;;;2.20;1.60;;;;;;;16.16;21.18;102545.34;6155423;28;20219;-52
2021/04/25 11:28:52;;;;;;;11.87;9.70;;;;;;;16.85;18.69;102552.00;6159347;28;20568;-55
2021/04/25 11:32:24;;;;;;;3.60;3.30;;;;;;;17.36;19.62;102535.75;6155818;28;20234;-55
2021/04/25 11:35:45;;;;;;;1.07;1.00;;;;;;;17.30;18.33;102532.28;6147079;28;21045;-52
2021/04/25 11:39:07;;;;;;;1.40;1.10;;;;;;;17.44;17.73;102533.91;6157896;28;20230;-55
2021/04/25 11:42:29;;;;;;;2.13;1.10;;;;;;;17.10;19.44;102529.84;6159031;28;20517;-56
2021/04/25 11:45:51;;;;;;;1.90;1.53;;;;;;;17.69;18.83;102523.97;6160538;28;20238;-56
2021/04/25 11:49:11;;;;;;;2.17;2.07;;;;;;;18.73;17.91;102524.31;6158646;28;20325;-56
2021/04/25 11:52:34;;;;;;;1.43;1.10;;;;;;;18.75;17.78;102526.94;6158572;28;20226;-53
2021/04/25 11:55:55;;;;;;;1.03;0.90;;;;;;;18.34;18.02;102528.41;6162694;28;20318;-57
2021/04/25 11:59:16;;;;;;;2.30;0.73;;;;;;;18.37;21.34;102523.09;6160081;28;20235;-54
2021/04/25 12:02:39;;;;;;;2.00;0.90;;;;;;;17.96;20.40;102535.97;6151236;28;21705;-54
2021/04/25 12:05:59;;;;;;;1.37;0.97;;;;;;;19.39;18.62;102531.13;6163610;28;20235;-56
2021/04/25 12:09:34;;;;;;;0.77;0.60;;;;;;;24.33;12.28;102515.88;6183141;28;20223;-55
2021/04/25 12:13:08;;;;;;;0.57;0.57;;;;;;;25.03;12.35;102519.22;6159091;28;20238;-54
2021/04/25 12:16:28;;;;;;;1.15;0.80;;;;;;;19.72;18.03;102519.94;6158412;28;20231;-55
2021/04/25 12:19:50;;;;;;;2.10;1.85;;;;;;;19.59;17.20;102525.44;6163306;28;20234;-55
2021/04/25 12:23:16;;;;;;;1.40;1.10;;;;;;;23.89;12.63;102521.19;6140298;28;21494;-55
2021/04/25 12:26:39;;;;;;;1.77;0.77;;;;;;;26.05;11.63;102519.09;6159690;28;20313;-54
2021/04/25 12:30:00;;;;;;;2.45;1.02;;;;;;;27.02;10.58;102516.13;6083713;28;20258;-56
2021/04/25 12:33:21;;;;;;;2.20;0.90;;;;;;;27.84;9.58;102526.03;6161120;28;20230;-52
2021/04/25 12:36:49;;;;;;;1.02;0.82;;;;;;;27.42;9.61;102524.75;6158928;28;20823;-54
2021/04/25 12:40:27;;;;;;;0.70;0.70;;;;;;;29.45;8.76;102513.09;6159380;28;20561;-54
2021/04/25 12:43:52;;;;;;;1.17;0.63;;;;;;;28.83;7.95;102514.13;6147610;28;20227;-53
2021/04/25 12:47:13;;;;;;;1.95;0.88;;;;;;;29.35;7.83;102522.66;6157462;28;20498;-57
2021/04/25 12:50:34;;;;;;;1.77;0.65;;;;;;;29.39;7.69;102514.34;6155824;28;20811;-54
2021/04/25 12:54:05;;;;;;;1.92;0.50;;;;;;;29.23;7.92;102510.88;6165833;28;20597;-55
2021/04/25 12:57:27;;;;;;;1.55;0.65;;;;;;;27.76;8.08;102506.84;6138979;28;20234;-55
2021/04/25 13:00:48;;;;;;;2.72;0.73;;;;;;;28.59;8.04;102508.41;6168450;28;20283;-55
2021/04/25 13:04:31;;;;;;;0.60;0.60;;;;;;;29.41;6.65;102508.84;6144751;28;20502;-54
2021/04/25 13:07:52;;;;;;;1.27;0.40;;;;;;;24.88;8.88;102508.31;6161336;28;20238;-54
2021/04/25 13:11:13;;;;;;;0.85;0.75;;;;;;;28.41;8.29;102504.09;6162340;28;20474;-54
2021/04/25 13:14:34;;;;;;;0.80;0.75;;;;;;;29.18;7.76;102495.06;6151850;28;20231;-50
2021/04/25 13:17:56;;;;;;;0.73;0.57;;;;;;;31.13;6.60;102494.84;6158448;28;20254;-54
2021/04/25 13:21:16;;;;;;;2.38;2.17;;;;;;;30.82;6.95;102506.84;6154210;28;20321;-55
2021/04/25 13:24:37;;;;;;;0.82;0.80;;;;;;;30.28;7.18;102501.53;6158815;28;20231;-54
2021/04/25 13:28:00;;;;;;;1.45;0.50;;;;;;;30.28;6.16;102498.84;6160703;28;20238;-54
2021/04/25 13:31:20;;;;;;;0.57;0.47;;;;;;;26.87;8.46;102502.63;6160118;28;20226;-50
2021/04/25 13:34:41;;;;;;;0.95;0.52;;;;;;;28.30;7.46;102506.53;6156531;28;20513;-53
2021/04/25 13:38:02;;;;;;;1.27;1.10;;;;;;;29.75;7.58;102493.34;6157184;28;20284;-48
2021/04/25 13:41:22;;;;;;;0.60;0.60;;;;;;;26.20;8.99;102484.59;6156019;28;20223;-53
2021/04/25 13:44:43;;;;;;;1.17;1.00;;;;;;;27.55;7.49;102477.69;6153443;28;20411;-53
2021/04/25 13:48:05;;;;;;;1.63;0.95;;;;;;;27.27;8.67;102487.16;6159299;28;20231;-54
2021/04/25 13:51:26;;;;;;;0.68;0.68;;;;;;;26.96;7.84;102484.38;6158026;28;20234;-55
2021/04/25 13:54:47;;;;;;;1.02;0.70;;;;;;;28.12;8.09;102497.75;6151994;28;20243;-54
2021/04/25 13:58:08;;;;;;;1.33;0.77;;;;;;;26.75;8.19;102479.19;6150272;28;20758;-54
2021/04/25 14:01:30;;;;;;;0.73;0.43;;;;;;;26.56;9.83;102491.72;6134351;28;20249;-54
2021/04/25 14:04:51;;;;;;;1.15;0.73;;;;;;;25.16;9.39;102485.78;6150853;28;20226;-56
2021/04/25 14:08:11;;;;;;;1.40;0.40;;;;;;;25.44;9.03;102480.13;6162989;28;20226;-55
2021/04/25 14:11:32;;;;;;;0.75;0.50;;;;;;;24.20;10.70;102496.03;6158491;28;20226;-53
2021/04/25 14:14:53;;;;;;;1.23;0.75;;;;;;;24.18;10.37;102481.00;6158634;28;20230;-52
2021/04/25 14:18:14;;;;;;;1.63;0.70;;;;;;;23.46;10.92;102478.44;6148273;28;20242;-51
2021/04/25 14:21:35;;;;;;;0.90;0.68;;;;;;;23.28;11.46;102476.44;6161416;28;20325;-56
2021/04/25 14:24:56;;;;;;;2.28;1.35;;;;;;;21.82;11.62;102487.38;6153378;28;20242;-55
2021/04/25 14:28:17;;;;;;;0.70;0.70;;;;;;;21.55;12.49;102484.63;6159029;28;20254;-54
2021/04/25 14:31:37;;;;;;;0.80;0.80;;;;;;;20.49;13.49;102481.19;6145183;28;20260;-55
2021/04/25 14:34:58;;;;;;;1.50;1.40;;;;;;;19.92;14.09;102469.28;6159352;28;20235;-52
2021/04/25 14:38:19;;;;;;;1.52;1.00;;;;;;;20.91;13.74;102467.81;6156570;28;20235;-55
2021/04/25 14:41:40;;;;;;;1.15;0.77;;;;;;;21.00;13.70;102473.75;6159016;28;22033;-52
2021/04/25 14:45:01;;;;;;;3.10;1.98;;;;;;;20.73;13.69;102479.75;6162523;28;20733;-55
2021/04/25 14:48:21;;;;;;;1.27;0.93;;;;;;;20.57;14.03;102469.53;6152372;28;20231;-56
2021/04/25 14:51:43;;;;;;;1.90;1.05;;;;;;;20.72;15.60;102476.22;6154493;28;20239;-54
2021/04/25 14:55:04;;;;;;;2.42;1.58;;;;;;;20.84;16.42;102467.13;6124631;28;20261;-56
2021/04/25 14:58:25;;;;;;;1.75;0.85;;;;;;;21.10;15.29;102469.06;6153565;28;20238;-54
2021/04/25 15:01:45;;;;;;;0.65;0.60;;;;;;;20.52;15.73;102476.69;6159756;28;20242;-52
2021/04/25 15:05:07;;;;;;;1.55;0.85;;;;;;;20.81;15.17;102472.50;6155786;28;20226;-54
2021/04/25 15:08:29;;;;;;;1.05;0.98;;;;;;;20.61;14.32;102473.00;6164903;28;20608;-56
2021/04/25 15:11:49;;;;;;;1.58;0.90;;;;;;;19.83;15.87;102481.81;6162699;28;20280;-54
2021/04/25 15:15:11;;;;;;;8.65;1.65;;;;;;;19.73;13.51;102476.75;6156767;28;20230;-52
2021/04/25 15:18:32;;;;;;;2.10;1.17;;;;;;;19.40;14.09;102472.06;6166136;28;20242;-57
2021/04/25 15:21:54;;;;;;;0.95;0.95;;;;;;;18.81;16.75;102468.81;6146121;28;20656;-57
2021/04/25 15:25:15;;;;;;;0.93;0.93;;;;;;;18.93;14.81;102471.22;6158120;28;20926;-57
2021/04/25 15:28:37;;;;;;;1.48;1.38;;;;;;;19.64;16.20;102469.88;6165494;28;20246;-53
2021/04/25 15:31:58;;;;;;;1.77;1.67;;;;;;;19.84;15.05;102465.03;6162627;28;20246;-53
2021/04/25 15:35:19;;;;;;;2.38;2.17;;;;;;;19.69;15.43;102470.63;6162303;28;20231;-56
2021/04/25 15:38:40;;;;;;;2.05;1.10;;;;;;;18.73;15.36;102468.91;6160780;28;20235;-54
2021/04/25 15:42:02;;;;;;;1.30;1.20;;;;;;;18.37;16.50;102476.50;6158861;28;21184;-55
2021/04/25 15:45:23;;;;;;;1.27;1.13;;;;;;;18.27;16.51;102481.03;6157048;28;20780;-51